sensor_id;sensor_type;location;lat;lon;timestamp;P1;durP1;ratioP1;P2;durP2;ratioP2
61572;SDS011;47465;43.094;12.434;2023-06-10T00:01:29;20.23;;;11.32;;
61572;SDS011;47465;43.094;12.434;2023-06-10T00:03:55;23.17;;;11.40;;
61572;SDS011;47465;43.094;12.434;2023-06-10T00:06:23;31.92;;;12.02;;
61572;SDS011;47465;43.094;12.434;2023-06-10T00:08:49;28.73;;;12.95;;
61572;SDS011;47465;43.094;12.434;2023-06-10T00:11:15;28.48;;;11.88;;
61572;SDS011;47465;43.094;12.434;2023-06-10T00:13:41;27.90;;;11.63;;
61572;SDS011;47465;43.094;12.434;2023-06-10T00:16:07;26.98;;;11.52;;
61572;SDS011;47465;43.094;12.434;2023-06-10T00:18:33;25.25;;;12.55;;
61572;SDS011;47465;43.094;12.434;2023-06-10T00:21:02;22.70;;;10.98;;
61572;SDS011;47465;43.094;12.434;2023-06-10T00:26:03;25.25;;;10.98;;
61572;SDS011;47465;43.094;12.434;2023-06-10T00:28:30;28.20;;;12.48;;
61572;SDS011;47465;43.094;12.434;2023-06-10T00:30:55;18.58;;;10.30;;
61572;SDS011;47465;43.094;12.434;2023-06-10T00:33:22;23.42;;;11.40;;
61572;SDS011;47465;43.094;12.434;2023-06-10T00:35:51;30.13;;;11.65;;
61572;SDS011;47465;43.094;12.434;2023-06-10T00:38:17;24.50;;;11.20;;
61572;SDS011;47465;43.094;12.434;2023-06-10T00:40:44;27.15;;;12.55;;
61572;SDS011;47465;43.094;12.434;2023-06-10T00:43:10;24.65;;;11.38;;
61572;SDS011;47465;43.094;12.434;2023-06-10T00:45:36;28.83;;;12.80;;
61572;SDS011;47465;43.094;12.434;2023-06-10T00:48:02;25.23;;;11.82;;
61572;SDS011;47465;43.094;12.434;2023-06-10T00:50:30;23.17;;;11.77;;
61572;SDS011;47465;43.094;12.434;2023-06-10T00:52:56;23.73;;;11.73;;
61572;SDS011;47465;43.094;12.434;2023-06-10T00:55:24;27.38;;;12.15;;
61572;SDS011;47465;43.094;12.434;2023-06-10T00:57:53;24.52;;;12.02;;
61572;SDS011;47465;43.094;12.434;2023-06-10T01:00:19;25.00;;;11.85;;
61572;SDS011;47465;43.094;12.434;2023-06-10T01:02:45;25.35;;;12.07;;
61572;SDS011;47465;43.094;12.434;2023-06-10T01:05:11;24.40;;;11.50;;
61572;SDS011;47465;43.094;12.434;2023-06-10T01:07:38;27.98;;;12.25;;
61572;SDS011;47465;43.094;12.434;2023-06-10T01:10:09;24.08;;;11.93;;
61572;SDS011;47465;43.094;12.434;2023-06-10T01:12:43;27.02;;;12.38;;
61572;SDS011;47465;43.094;12.434;2023-06-10T01:15:15;32.10;;;13.02;;
61572;SDS011;47465;43.094;12.434;2023-06-10T01:17:55;27.42;;;11.80;;
61572;SDS011;47465;43.094;12.434;2023-06-10T01:20:23;33.60;;;14.23;;
61572;SDS011;47465;43.094;12.434;2023-06-10T01:22:50;29.88;;;12.52;;
61572;SDS011;47465;43.094;12.434;2023-06-10T01:25:19;27.90;;;13.57;;
61572;SDS011;47465;43.094;12.434;2023-06-10T01:27:53;33.17;;;14.57;;
61572;SDS011;47465;43.094;12.434;2023-06-10T01:30:26;28.60;;;13.40;;
61572;SDS011;47465;43.094;12.434;2023-06-10T01:32:55;26.17;;;12.95;;
61572;SDS011;47465;43.094;12.434;2023-06-10T01:35:24;28.05;;;13.10;;
61572;SDS011;47465;43.094;12.434;2023-06-10T01:37:54;33.92;;;13.43;;
61572;SDS011;47465;43.094;12.434;2023-06-10T01:40:22;27.65;;;13.57;;
61572;SDS011;47465;43.094;12.434;2023-06-10T01:42:49;32.42;;;12.55;;
61572;SDS011;47465;43.094;12.434;2023-06-10T01:45:17;28.10;;;12.40;;
61572;SDS011;47465;43.094;12.434;2023-06-10T01:47:43;26.45;;;12.25;;
61572;SDS011;47465;43.094;12.434;2023-06-10T01:50:09;28.58;;;13.13;;
61572;SDS011;47465;43.094;12.434;2023-06-10T01:52:35;41.65;;;12.88;;
61572;SDS011;47465;43.094;12.434;2023-06-10T01:55:04;29.63;;;12.43;;
61572;SDS011;47465;43.094;12.434;2023-06-10T01:57:30;22.40;;;11.70;;
61572;SDS011;47465;43.094;12.434;2023-06-10T01:59:56;21.08;;;10.88;;
61572;SDS011;47465;43.094;12.434;2023-06-10T02:02:22;21.08;;;11.07;;
61572;SDS011;47465;43.094;12.434;2023-06-10T02:04:50;31.50;;;11.73;;
61572;SDS011;47465;43.094;12.434;2023-06-10T02:07:15;21.77;;;11.43;;
61572;SDS011;47465;43.094;12.434;2023-06-10T02:09:41;26.55;;;12.35;;
61572;SDS011;47465;43.094;12.434;2023-06-10T02:12:09;23.83;;;10.43;;
61572;SDS011;47465;43.094;12.434;2023-06-10T02:14:35;27.88;;;12.57;;
61572;SDS011;47465;43.094;12.434;2023-06-10T02:17:01;25.70;;;11.73;;
61572;SDS011;47465;43.094;12.434;2023-06-10T02:19:27;24.30;;;10.40;;
61572;SDS011;47465;43.094;12.434;2023-06-10T02:21:53;30.27;;;11.45;;
61572;SDS011;47465;43.094;12.434;2023-06-10T02:24:19;23.85;;;11.02;;
61572;SDS011;47465;43.094;12.434;2023-06-10T02:26:45;30.70;;;10.85;;
61572;SDS011;47465;43.094;12.434;2023-06-10T02:29:14;25.23;;;10.85;;
61572;SDS011;47465;43.094;12.434;2023-06-10T02:31:40;26.08;;;11.43;;
61572;SDS011;47465;43.094;12.434;2023-06-10T02:34:06;25.27;;;11.35;;
61572;SDS011;47465;43.094;12.434;2023-06-10T02:36:32;23.77;;;10.95;;
61572;SDS011;47465;43.094;12.434;2023-06-10T02:38:57;24.33;;;11.43;;
61572;SDS011;47465;43.094;12.434;2023-06-10T02:41:23;22.85;;;10.93;;
61572;SDS011;47465;43.094;12.434;2023-06-10T02:43:50;26.23;;;10.57;;
61572;SDS011;47465;43.094;12.434;2023-06-10T02:46:17;27.33;;;11.35;;
61572;SDS011;47465;43.094;12.434;2023-06-10T02:48:43;27.40;;;10.45;;
61572;SDS011;47465;43.094;12.434;2023-06-10T02:51:09;24.08;;;10.60;;
61572;SDS011;47465;43.094;12.434;2023-06-10T02:53:35;24.30;;;10.70;;
61572;SDS011;47465;43.094;12.434;2023-06-10T02:56:01;22.52;;;11.35;;
61572;SDS011;47465;43.094;12.434;2023-06-10T02:58:27;25.45;;;11.00;;
61572;SDS011;47465;43.094;12.434;2023-06-10T03:00:52;23.55;;;10.50;;
61572;SDS011;47465;43.094;12.434;2023-06-10T03:03:20;26.60;;;11.13;;
61572;SDS011;47465;43.094;12.434;2023-06-10T03:08:13;21.65;;;10.35;;
61572;SDS011;47465;43.094;12.434;2023-06-10T03:10:39;25.67;;;11.00;;
61572;SDS011;47465;43.094;12.434;2023-06-10T03:13:05;23.40;;;10.73;;
61572;SDS011;47465;43.094;12.434;2023-06-10T03:15:30;25.05;;;11.63;;
61572;SDS011;47465;43.094;12.434;2023-06-10T03:17:58;21.83;;;10.65;;
61572;SDS011;47465;43.094;12.434;2023-06-10T03:20:25;21.60;;;10.95;;
61572;SDS011;47465;43.094;12.434;2023-06-10T03:22:52;27.95;;;11.20;;
61572;SDS011;47465;43.094;12.434;2023-06-10T03:25:18;20.33;;;10.43;;
61572;SDS011;47465;43.094;12.434;2023-06-10T03:27:46;24.95;;;11.77;;
61572;SDS011;47465;43.094;12.434;2023-06-10T03:30:16;29.40;;;12.68;;
61572;SDS011;47465;43.094;12.434;2023-06-10T03:32:42;29.00;;;13.23;;
61572;SDS011;47465;43.094;12.434;2023-06-10T03:35:08;28.58;;;12.65;;
61572;SDS011;47465;43.094;12.434;2023-06-10T03:37:36;30.88;;;12.73;;
61572;SDS011;47465;43.094;12.434;2023-06-10T03:40:02;26.20;;;12.45;;
61572;SDS011;47465;43.094;12.434;2023-06-10T03:42:28;33.30;;;13.50;;
61572;SDS011;47465;43.094;12.434;2023-06-10T03:44:54;26.92;;;12.63;;
61572;SDS011;47465;43.094;12.434;2023-06-10T03:47:21;23.25;;;11.38;;
61572;SDS011;47465;43.094;12.434;2023-06-10T03:49:47;25.58;;;12.30;;
61572;SDS011;47465;43.094;12.434;2023-06-10T03:52:13;28.20;;;13.70;;
61572;SDS011;47465;43.094;12.434;2023-06-10T03:54:40;30.00;;;13.70;;
61572;SDS011;47465;43.094;12.434;2023-06-10T03:57:06;26.92;;;12.65;;
61572;SDS011;47465;43.094;12.434;2023-06-10T03:59:32;35.65;;;13.68;;
61572;SDS011;47465;43.094;12.434;2023-06-10T04:01:58;32.25;;;13.80;;
61572;SDS011;47465;43.094;12.434;2023-06-10T04:04:24;26.73;;;13.35;;
61572;SDS011;47465;43.094;12.434;2023-06-10T04:06:49;31.08;;;13.27;;
61572;SDS011;47465;43.094;12.434;2023-06-10T04:09:16;35.40;;;13.15;;
61572;SDS011;47465;43.094;12.434;2023-06-10T04:11:43;27.98;;;14.02;;
61572;SDS011;47465;43.094;12.434;2023-06-10T04:14:09;29.33;;;13.63;;
61572;SDS011;47465;43.094;12.434;2023-06-10T04:16:35;32.03;;;13.90;;
61572;SDS011;47465;43.094;12.434;2023-06-10T04:19:01;34.55;;;13.23;;
61572;SDS011;47465;43.094;12.434;2023-06-10T04:21:27;32.13;;;13.50;;
61572;SDS011;47465;43.094;12.434;2023-06-10T04:23:53;27.27;;;13.50;;
61572;SDS011;47465;43.094;12.434;2023-06-10T04:26:19;28.42;;;13.93;;
61572;SDS011;47465;43.094;12.434;2023-06-10T04:28:46;31.42;;;13.60;;
61572;SDS011;47465;43.094;12.434;2023-06-10T04:31:12;28.40;;;12.38;;
61572;SDS011;47465;43.094;12.434;2023-06-10T04:33:38;30.10;;;13.00;;
61572;SDS011;47465;43.094;12.434;2023-06-10T04:36:04;37.13;;;13.98;;
61572;SDS011;47465;43.094;12.434;2023-06-10T04:38:32;28.95;;;13.73;;
61572;SDS011;47465;43.094;12.434;2023-06-10T04:40:57;28.17;;;12.70;;
61572;SDS011;47465;43.094;12.434;2023-06-10T04:43:23;29.05;;;13.48;;
61572;SDS011;47465;43.094;12.434;2023-06-10T04:45:51;29.40;;;13.13;;
61572;SDS011;47465;43.094;12.434;2023-06-10T04:48:17;26.80;;;12.30;;
61572;SDS011;47465;43.094;12.434;2023-06-10T04:50:43;27.90;;;12.35;;
61572;SDS011;47465;43.094;12.434;2023-06-10T04:53:08;30.48;;;12.38;;
61572;SDS011;47465;43.094;12.434;2023-06-10T04:55:34;28.25;;;12.43;;
61572;SDS011;47465;43.094;12.434;2023-06-10T04:58:01;23.00;;;11.98;;
61572;SDS011;47465;43.094;12.434;2023-06-10T05:00:27;27.02;;;12.55;;
61572;SDS011;47465;43.094;12.434;2023-06-10T05:02:55;28.20;;;12.43;;
61572;SDS011;47465;43.094;12.434;2023-06-10T05:05:21;23.73;;;11.95;;
61572;SDS011;47465;43.094;12.434;2023-06-10T05:07:47;24.00;;;11.55;;
61572;SDS011;47465;43.094;12.434;2023-06-10T05:10:16;26.25;;;13.00;;
61572;SDS011;47465;43.094;12.434;2023-06-10T05:12:42;30.10;;;13.48;;
61572;SDS011;47465;43.094;12.434;2023-06-10T05:15:08;23.75;;;12.50;;
61572;SDS011;47465;43.094;12.434;2023-06-10T05:17:35;24.30;;;13.07;;
61572;SDS011;47465;43.094;12.434;2023-06-10T05:20:02;27.52;;;13.20;;
61572;SDS011;47465;43.094;12.434;2023-06-10T05:22:29;30.50;;;13.73;;
61572;SDS011;47465;43.094;12.434;2023-06-10T05:24:54;33.00;;;13.93;;
61572;SDS011;47465;43.094;12.434;2023-06-10T05:27:21;32.00;;;14.02;;
61572;SDS011;47465;43.094;12.434;2023-06-10T05:29:47;32.63;;;14.40;;
61572;SDS011;47465;43.094;12.434;2023-06-10T05:32:13;24.55;;;13.13;;
61572;SDS011;47465;43.094;12.434;2023-06-10T05:34:39;29.88;;;14.45;;
61572;SDS011;47465;43.094;12.434;2023-06-10T05:37:07;32.67;;;14.88;;
61572;SDS011;47465;43.094;12.434;2023-06-10T05:39:33;38.88;;;14.75;;
61572;SDS011;47465;43.094;12.434;2023-06-10T05:42:03;33.42;;;14.90;;
61572;SDS011;47465;43.094;12.434;2023-06-10T05:44:29;35.50;;;15.68;;
61572;SDS011;47465;43.094;12.434;2023-06-10T05:46:55;31.02;;;14.48;;
61572;SDS011;47465;43.094;12.434;2023-06-10T05:49:21;30.00;;;14.18;;
61572;SDS011;47465;43.094;12.434;2023-06-10T05:51:47;30.77;;;14.02;;
61572;SDS011;47465;43.094;12.434;2023-06-10T05:54:14;31.25;;;12.93;;
61572;SDS011;47465;43.094;12.434;2023-06-10T05:56:40;35.72;;;14.45;;
61572;SDS011;47465;43.094;12.434;2023-06-10T05:59:06;35.17;;;15.00;;
61572;SDS011;47465;43.094;12.434;2023-06-10T06:01:32;26.58;;;13.23;;
61572;SDS011;47465;43.094;12.434;2023-06-10T06:03:57;32.50;;;14.55;;
61572;SDS011;47465;43.094;12.434;2023-06-10T06:06:23;32.08;;;14.25;;
61572;SDS011;47465;43.094;12.434;2023-06-10T06:08:49;30.23;;;15.07;;
61572;SDS011;47465;43.094;12.434;2023-06-10T06:11:17;34.65;;;16.38;;
61572;SDS011;47465;43.094;12.434;2023-06-10T06:13:43;36.90;;;13.65;;
61572;SDS011;47465;43.094;12.434;2023-06-10T06:16:09;28.98;;;13.52;;
61572;SDS011;47465;43.094;12.434;2023-06-10T06:18:35;38.20;;;15.18;;
61572;SDS011;47465;43.094;12.434;2023-06-10T06:21:00;33.47;;;14.07;;
61572;SDS011;47465;43.094;12.434;2023-06-10T06:23:26;32.35;;;14.20;;
61572;SDS011;47465;43.094;12.434;2023-06-10T06:25:52;28.98;;;14.18;;
61572;SDS011;47465;43.094;12.434;2023-06-10T06:28:19;31.30;;;14.85;;
61572;SDS011;47465;43.094;12.434;2023-06-10T06:33:13;35.80;;;14.23;;
61572;SDS011;47465;43.094;12.434;2023-06-10T06:35:39;37.00;;;15.27;;
61572;SDS011;47465;43.094;12.434;2023-06-10T06:38:05;35.88;;;14.55;;
61572;SDS011;47465;43.094;12.434;2023-06-10T06:40:31;33.53;;;14.35;;
61572;SDS011;47465;43.094;12.434;2023-06-10T06:42:57;32.53;;;14.98;;
61572;SDS011;47465;43.094;12.434;2023-06-10T06:45:24;32.55;;;14.85;;
61572;SDS011;47465;43.094;12.434;2023-06-10T06:47:50;37.13;;;15.32;;
61572;SDS011;47465;43.094;12.434;2023-06-10T06:50:16;38.05;;;14.75;;
61572;SDS011;47465;43.094;12.434;2023-06-10T06:52:44;29.52;;;14.07;;
61572;SDS011;47465;43.094;12.434;2023-06-10T06:55:13;29.73;;;14.20;;
61572;SDS011;47465;43.094;12.434;2023-06-10T06:57:39;34.75;;;13.95;;
61572;SDS011;47465;43.094;12.434;2023-06-10T07:00:05;27.63;;;14.18;;
61572;SDS011;47465;43.094;12.434;2023-06-10T07:02:35;26.02;;;12.77;;
61572;SDS011;47465;43.094;12.434;2023-06-10T07:05:01;30.38;;;13.40;;
61572;SDS011;47465;43.094;12.434;2023-06-10T07:07:30;32.10;;;13.52;;
61572;SDS011;47465;43.094;12.434;2023-06-10T07:09:56;25.02;;;13.10;;
61572;SDS011;47465;43.094;12.434;2023-06-10T07:12:22;26.23;;;12.18;;
61572;SDS011;47465;43.094;12.434;2023-06-10T07:14:49;23.02;;;11.90;;
61572;SDS011;47465;43.094;12.434;2023-06-10T07:17:15;19.70;;;10.93;;
61572;SDS011;47465;43.094;12.434;2023-06-10T07:19:43;21.23;;;10.93;;
61572;SDS011;47465;43.094;12.434;2023-06-10T07:22:09;25.10;;;11.82;;
61572;SDS011;47465;43.094;12.434;2023-06-10T07:24:35;21.80;;;10.68;;
61572;SDS011;47465;43.094;12.434;2023-06-10T07:27:01;23.42;;;9.95;;
61572;SDS011;47465;43.094;12.434;2023-06-10T07:29:27;18.98;;;9.88;;
61572;SDS011;47465;43.094;12.434;2023-06-10T07:31:53;18.63;;;9.98;;
61572;SDS011;47465;43.094;12.434;2023-06-10T07:34:18;16.05;;;8.88;;
61572;SDS011;47465;43.094;12.434;2023-06-10T07:36:46;20.50;;;8.77;;
61572;SDS011;47465;43.094;12.434;2023-06-10T07:39:12;22.15;;;9.68;;
61572;SDS011;47465;43.094;12.434;2023-06-10T07:41:38;23.00;;;10.25;;
61572;SDS011;47465;43.094;12.434;2023-06-10T07:44:04;18.30;;;9.20;;
61572;SDS011;47465;43.094;12.434;2023-06-10T07:46:30;20.33;;;9.38;;
61572;SDS011;47465;43.094;12.434;2023-06-10T07:48:56;23.73;;;10.18;;
61572;SDS011;47465;43.094;12.434;2023-06-10T07:51:22;24.48;;;9.90;;
61572;SDS011;47465;43.094;12.434;2023-06-10T07:53:50;19.40;;;8.95;;
61572;SDS011;47465;43.094;12.434;2023-06-10T07:56:16;19.57;;;8.87;;
61572;SDS011;47465;43.094;12.434;2023-06-10T07:58:42;20.48;;;9.57;;
61572;SDS011;47465;43.094;12.434;2023-06-10T08:01:08;18.77;;;9.30;;
61572;SDS011;47465;43.094;12.434;2023-06-10T08:03:34;20.88;;;8.55;;
61572;SDS011;47465;43.094;12.434;2023-06-10T08:06:00;17.13;;;8.48;;
61572;SDS011;47465;43.094;12.434;2023-06-10T08:08:26;17.17;;;8.18;;
61572;SDS011;47465;43.094;12.434;2023-06-10T08:10:53;19.63;;;8.43;;
61572;SDS011;47465;43.094;12.434;2023-06-10T08:13:19;16.60;;;8.05;;
61572;SDS011;47465;43.094;12.434;2023-06-10T08:15:45;16.65;;;7.40;;
61572;SDS011;47465;43.094;12.434;2023-06-10T08:18:13;16.80;;;7.63;;
61572;SDS011;47465;43.094;12.434;2023-06-10T08:20:39;23.40;;;10.07;;
61572;SDS011;47465;43.094;12.434;2023-06-10T08:23:05;15.50;;;8.13;;
61572;SDS011;47465;43.094;12.434;2023-06-10T08:25:31;18.17;;;8.25;;
61572;SDS011;47465;43.094;12.434;2023-06-10T08:27:58;14.95;;;7.63;;
61572;SDS011;47465;43.094;12.434;2023-06-10T08:30:24;17.75;;;8.40;;
61572;SDS011;47465;43.094;12.434;2023-06-10T08:32:50;18.85;;;8.88;;
61572;SDS011;47465;43.094;12.434;2023-06-10T08:35:17;18.10;;;8.52;;
61572;SDS011;47465;43.094;12.434;2023-06-10T08:37:43;21.70;;;10.00;;
61572;SDS011;47465;43.094;12.434;2023-06-10T08:40:09;18.65;;;9.95;;
61572;SDS011;47465;43.094;12.434;2023-06-10T08:42:37;21.25;;;9.63;;
61572;SDS011;47465;43.094;12.434;2023-06-10T08:45:11;18.45;;;8.85;;
61572;SDS011;47465;43.094;12.434;2023-06-10T08:47:42;13.23;;;8.38;;
61572;SDS011;47465;43.094;12.434;2023-06-10T08:50:12;14.65;;;8.43;;
61572;SDS011;47465;43.094;12.434;2023-06-10T08:52:42;22.95;;;9.73;;
61572;SDS011;47465;43.094;12.434;2023-06-10T08:55:10;16.58;;;8.75;;
61572;SDS011;47465;43.094;12.434;2023-06-10T08:57:39;14.98;;;8.57;;
61572;SDS011;47465;43.094;12.434;2023-06-10T09:00:07;17.50;;;9.20;;
61572;SDS011;47465;43.094;12.434;2023-06-10T09:02:35;18.35;;;8.70;;
61572;SDS011;47465;43.094;12.434;2023-06-10T09:05:02;18.80;;;8.85;;
61572;SDS011;47465;43.094;12.434;2023-06-10T09:07:28;15.90;;;9.00;;
61572;SDS011;47465;43.094;12.434;2023-06-10T09:12:22;17.15;;;8.85;;
61572;SDS011;47465;43.094;12.434;2023-06-10T09:14:49;20.35;;;9.27;;
61572;SDS011;47465;43.094;12.434;2023-06-10T09:17:15;16.98;;;8.23;;
61572;SDS011;47465;43.094;12.434;2023-06-10T09:19:43;15.23;;;8.88;;
61572;SDS011;47465;43.094;12.434;2023-06-10T09:22:11;17.50;;;8.23;;
61572;SDS011;47465;43.094;12.434;2023-06-10T09:24:37;19.55;;;8.38;;
61572;SDS011;47465;43.094;12.434;2023-06-10T09:27:05;22.37;;;8.40;;
61572;SDS011;47465;43.094;12.434;2023-06-10T09:29:43;18.27;;;8.38;;
61572;SDS011;47465;43.094;12.434;2023-06-10T09:32:11;17.13;;;8.32;;
61572;SDS011;47465;43.094;12.434;2023-06-10T09:34:37;18.33;;;8.27;;
61572;SDS011;47465;43.094;12.434;2023-06-10T09:37:04;17.30;;;8.73;;
61572;SDS011;47465;43.094;12.434;2023-06-10T09:39:30;21.02;;;8.80;;
61572;SDS011;47465;43.094;12.434;2023-06-10T09:41:56;19.40;;;8.82;;
61572;SDS011;47465;43.094;12.434;2023-06-10T09:44:22;17.75;;;9.30;;
61572;SDS011;47465;43.094;12.434;2023-06-10T09:46:50;19.37;;;8.57;;
61572;SDS011;47465;43.094;12.434;2023-06-10T09:49:16;17.00;;;8.40;;
61572;SDS011;47465;43.094;12.434;2023-06-10T09:51:48;14.27;;;7.85;;
61572;SDS011;47465;43.094;12.434;2023-06-10T09:54:17;15.40;;;8.30;;
61572;SDS011;47465;43.094;12.434;2023-06-10T09:56:43;14.52;;;6.97;;
61572;SDS011;47465;43.094;12.434;2023-06-10T09:59:12;18.50;;;8.05;;
61572;SDS011;47465;43.094;12.434;2023-06-10T10:01:38;18.17;;;7.90;;
61572;SDS011;47465;43.094;12.434;2023-06-10T10:04:05;15.90;;;7.72;;
61572;SDS011;47465;43.094;12.434;2023-06-10T10:06:30;13.85;;;7.05;;
61572;SDS011;47465;43.094;12.434;2023-06-10T10:08:57;15.35;;;7.22;;
61572;SDS011;47465;43.094;12.434;2023-06-10T10:11:24;16.52;;;8.55;;
61572;SDS011;47465;43.094;12.434;2023-06-10T10:13:52;15.40;;;7.47;;
61572;SDS011;47465;43.094;12.434;2023-06-10T10:16:19;14.95;;;7.75;;
61572;SDS011;47465;43.094;12.434;2023-06-10T10:18:47;16.35;;;7.53;;
61572;SDS011;47465;43.094;12.434;2023-06-10T10:21:19;11.73;;;6.85;;
61572;SDS011;47465;43.094;12.434;2023-06-10T10:23:50;14.13;;;7.20;;
61572;SDS011;47465;43.094;12.434;2023-06-10T10:26:25;13.55;;;7.18;;
61572;SDS011;47465;43.094;12.434;2023-06-10T10:28:55;15.75;;;7.38;;
61572;SDS011;47465;43.094;12.434;2023-06-10T10:31:30;12.80;;;6.90;;
61572;SDS011;47465;43.094;12.434;2023-06-10T10:34:00;13.80;;;7.13;;
61572;SDS011;47465;43.094;12.434;2023-06-10T10:36:31;13.60;;;6.57;;
61572;SDS011;47465;43.094;12.434;2023-06-10T10:38:57;14.00;;;7.18;;
61572;SDS011;47465;43.094;12.434;2023-06-10T10:41:25;15.60;;;6.57;;
61572;SDS011;47465;43.094;12.434;2023-06-10T10:43:52;16.60;;;7.18;;
61572;SDS011;47465;43.094;12.434;2023-06-10T10:46:25;14.40;;;6.30;;
61572;SDS011;47465;43.094;12.434;2023-06-10T10:48:55;12.55;;;6.82;;
61572;SDS011;47465;43.094;12.434;2023-06-10T10:51:23;14.07;;;5.73;;
61572;SDS011;47465;43.094;12.434;2023-06-10T10:59:45;13.60;;;6.05;;
61572;SDS011;47465;43.094;12.434;2023-06-10T11:02:17;11.85;;;5.97;;
61572;SDS011;47465;43.094;12.434;2023-06-10T11:04:44;13.52;;;6.45;;
61572;SDS011;47465;43.094;12.434;2023-06-10T11:07:11;13.63;;;5.83;;
61572;SDS011;47465;43.094;12.434;2023-06-10T11:09:56;13.10;;;5.82;;
61572;SDS011;47465;43.094;12.434;2023-06-10T11:12:26;16.30;;;6.05;;
61572;SDS011;47465;43.094;12.434;2023-06-10T11:15:13;12.60;;;6.40;;
61572;SDS011;47465;43.094;12.434;2023-06-10T11:23:26;9.88;;;4.90;;
61572;SDS011;47465;43.094;12.434;2023-06-10T11:26:19;10.13;;;4.55;;
61572;SDS011;47465;43.094;12.434;2023-06-10T11:29:05;8.30;;;4.32;;
61572;SDS011;47465;43.094;12.434;2023-06-10T11:31:38;10.77;;;4.38;;
61572;SDS011;47465;43.094;12.434;2023-06-10T11:34:06;11.85;;;4.90;;
61572;SDS011;47465;43.094;12.434;2023-06-10T11:36:34;10.30;;;4.55;;
61572;SDS011;47465;43.094;12.434;2023-06-10T11:39:03;9.23;;;5.72;;
61572;SDS011;47465;43.094;12.434;2023-06-10T11:43:57;9.90;;;5.20;;
61572;SDS011;47465;43.094;12.434;2023-06-10T11:46:28;10.38;;;5.18;;
61572;SDS011;47465;43.094;12.434;2023-06-10T11:48:55;10.25;;;5.65;;
61572;SDS011;47465;43.094;12.434;2023-06-10T11:51:24;11.60;;;6.03;;
61572;SDS011;47465;43.094;12.434;2023-06-10T11:53:51;13.40;;;5.35;;
61572;SDS011;47465;43.094;12.434;2023-06-10T11:56:19;11.30;;;4.90;;
61572;SDS011;47465;43.094;12.434;2023-06-10T11:58:45;9.90;;;4.63;;
61572;SDS011;47465;43.094;12.434;2023-06-10T12:01:19;9.35;;;4.95;;
61572;SDS011;47465;43.094;12.434;2023-06-10T12:03:50;8.35;;;5.10;;
61572;SDS011;47465;43.094;12.434;2023-06-10T12:06:22;10.18;;;4.40;;
61572;SDS011;47465;43.094;12.434;2023-06-10T12:08:48;10.48;;;4.82;;
61572;SDS011;47465;43.094;12.434;2023-06-10T12:11:14;11.43;;;5.18;;
61572;SDS011;47465;43.094;12.434;2023-06-10T12:13:46;11.30;;;4.82;;
61572;SDS011;47465;43.094;12.434;2023-06-10T12:16:14;9.43;;;5.25;;
61572;SDS011;47465;43.094;12.434;2023-06-10T12:18:42;10.90;;;4.40;;
61572;SDS011;47465;43.094;12.434;2023-06-10T12:21:18;8.95;;;4.50;;
61572;SDS011;47465;43.094;12.434;2023-06-10T12:24:06;7.80;;;4.57;;
61572;SDS011;47465;43.094;12.434;2023-06-10T12:26:34;7.97;;;4.22;;
61572;SDS011;47465;43.094;12.434;2023-06-10T12:29:01;10.88;;;5.20;;
61572;SDS011;47465;43.094;12.434;2023-06-10T12:31:27;11.77;;;4.60;;
61572;SDS011;47465;43.094;12.434;2023-06-10T12:34:05;9.82;;;4.63;;
61572;SDS011;47465;43.094;12.434;2023-06-10T12:36:34;11.20;;;4.70;;
61572;SDS011;47465;43.094;12.434;2023-06-10T12:39:04;8.98;;;4.78;;
61572;SDS011;47465;43.094;12.434;2023-06-10T12:41:30;11.00;;;4.82;;
61572;SDS011;47465;43.094;12.434;2023-06-10T12:43:57;10.68;;;5.30;;
61572;SDS011;47465;43.094;12.434;2023-06-10T12:46:23;6.93;;;4.43;;
61572;SDS011;47465;43.094;12.434;2023-06-10T12:48:49;7.20;;;4.65;;
61572;SDS011;47465;43.094;12.434;2023-06-10T12:51:17;12.07;;;4.60;;
61572;SDS011;47465;43.094;12.434;2023-06-10T12:56:12;12.63;;;4.57;;
61572;SDS011;47465;43.094;12.434;2023-06-10T12:58:38;12.15;;;5.00;;
61572;SDS011;47465;43.094;12.434;2023-06-10T13:01:04;8.30;;;4.70;;
61572;SDS011;47465;43.094;12.434;2023-06-10T13:03:30;8.70;;;4.35;;
61572;SDS011;47465;43.094;12.434;2023-06-10T13:05:56;9.70;;;4.85;;
61572;SDS011;47465;43.094;12.434;2023-06-10T13:08:22;9.90;;;4.47;;
61572;SDS011;47465;43.094;12.434;2023-06-10T13:10:49;16.90;;;5.40;;
61572;SDS011;47465;43.094;12.434;2023-06-10T13:13:15;7.53;;;4.70;;
61572;SDS011;47465;43.094;12.434;2023-06-10T13:15:41;10.05;;;4.78;;
61572;SDS011;47465;43.094;12.434;2023-06-10T13:18:07;10.35;;;4.85;;
61572;SDS011;47465;43.094;12.434;2023-06-10T13:20:34;10.60;;;4.82;;
61572;SDS011;47465;43.094;12.434;2023-06-10T13:22:59;10.90;;;5.18;;
61572;SDS011;47465;43.094;12.434;2023-06-10T13:25:26;8.40;;;4.97;;
61572;SDS011;47465;43.094;12.434;2023-06-10T13:27:54;10.55;;;4.65;;
61572;SDS011;47465;43.094;12.434;2023-06-10T13:30:20;9.45;;;4.97;;
61572;SDS011;47465;43.094;12.434;2023-06-10T13:32:46;11.80;;;4.70;;
61572;SDS011;47465;43.094;12.434;2023-06-10T13:35:12;11.00;;;5.22;;
61572;SDS011;47465;43.094;12.434;2023-06-10T13:37:38;12.02;;;5.00;;
61572;SDS011;47465;43.094;12.434;2023-06-10T13:40:04;9.57;;;4.80;;
61572;SDS011;47465;43.094;12.434;2023-06-10T13:42:33;10.57;;;5.25;;
61572;SDS011;47465;43.094;12.434;2023-06-10T13:45:02;13.07;;;4.82;;
61572;SDS011;47465;43.094;12.434;2023-06-10T13:47:29;9.60;;;4.97;;
61572;SDS011;47465;43.094;12.434;2023-06-10T13:49:55;10.23;;;5.13;;
61572;SDS011;47465;43.094;12.434;2023-06-10T13:52:21;12.73;;;5.18;;
61572;SDS011;47465;43.094;12.434;2023-06-10T13:54:47;11.00;;;5.43;;
61572;SDS011;47465;43.094;12.434;2023-06-10T13:57:13;11.43;;;5.22;;
61572;SDS011;47465;43.094;12.434;2023-06-10T13:59:39;7.50;;;5.05;;
61572;SDS011;47465;43.094;12.434;2023-06-10T14:02:06;10.63;;;5.30;;
61572;SDS011;47465;43.094;12.434;2023-06-10T14:04:32;10.77;;;5.70;;
61572;SDS011;47465;43.094;12.434;2023-06-10T14:06:58;12.65;;;5.63;;
61572;SDS011;47465;43.094;12.434;2023-06-10T14:09:24;11.95;;;5.60;;
61572;SDS011;47465;43.094;12.434;2023-06-10T14:11:50;14.07;;;6.28;;
61572;SDS011;47465;43.094;12.434;2023-06-10T14:14:16;12.32;;;6.43;;
61572;SDS011;47465;43.094;12.434;2023-06-10T14:16:42;15.55;;;6.25;;
61572;SDS011;47465;43.094;12.434;2023-06-10T14:19:09;9.70;;;5.85;;
61572;SDS011;47465;43.094;12.434;2023-06-10T14:21:35;13.05;;;6.55;;
61572;SDS011;47465;43.094;12.434;2023-06-10T14:24:01;8.70;;;5.80;;
61572;SDS011;47465;43.094;12.434;2023-06-10T14:26:27;15.25;;;7.78;;
61572;SDS011;47465;43.094;12.434;2023-06-10T14:28:53;12.60;;;6.22;;
61572;SDS011;47465;43.094;12.434;2023-06-10T14:31:19;13.93;;;6.60;;
61572;SDS011;47465;43.094;12.434;2023-06-10T14:33:45;13.52;;;6.32;;
61572;SDS011;47465;43.094;12.434;2023-06-10T14:36:12;15.77;;;6.50;;
61572;SDS011;47465;43.094;12.434;2023-06-10T14:38:38;15.02;;;6.35;;
61572;SDS011;47465;43.094;12.434;2023-06-10T14:41:05;15.90;;;6.40;;
61572;SDS011;47465;43.094;12.434;2023-06-10T14:43:31;14.82;;;7.05;;